createdAt,value
2018-09-12T13:01:43.720Z,30.9
2018-09-12T13:02:03.952Z,31.1
2018-09-12T13:02:24.248Z,31
2018-09-12T13:02:44.423Z,31
2018-09-12T13:03:04.574Z,31
2018-09-12T13:03:24.735Z,31
2018-09-12T13:03:44.880Z,30.9
2018-09-12T13:04:05.030Z,30.9
2018-09-12T13:04:25.226Z,30.9
2018-09-12T13:04:45.386Z,31
2018-09-12T13:05:05.539Z,31
2018-09-12T13:05:25.748Z,30.9
2018-09-12T13:05:46.121Z,30.9
2018-09-12T13:06:06.048Z,30.9
2018-09-12T13:06:26.481Z,31
2018-09-12T13:06:46.801Z,31
2018-09-12T13:07:06.949Z,30.9
2018-09-12T13:07:27.182Z,30.9
2018-09-12T13:07:47.402Z,30.9
2018-09-12T13:08:08.120Z,30.9
2018-09-12T13:08:28.622Z,30.9
2018-09-12T13:08:48.812Z,30.9
2018-09-12T13:09:08.961Z,30.8
2018-09-12T13:09:29.143Z,30.8
2018-09-12T13:09:49.303Z,30.7
2018-09-12T13:10:09.470Z,30.7
2018-09-12T13:10:29.667Z,30.7
2018-09-12T13:10:50.143Z,30.8
2018-09-12T13:11:10.332Z,30.8
2018-09-12T13:11:30.533Z,30.8
2018-09-12T13:11:50.688Z,30.9
2018-09-12T13:12:10.834Z,30.9
2018-09-12T13:12:30.979Z,30.8
2018-09-12T13:12:51.295Z,30.9
2018-09-12T13:13:12.756Z,30.9
2018-09-12T13:13:33.390Z,30.9
2018-09-12T13:13:54.350Z,31
2018-09-12T13:14:15.352Z,31.1
2018-09-12T13:14:36.006Z,31.1
2018-09-12T13:14:56.335Z,31.1
2018-09-12T13:15:16.637Z,31.1
2018-09-12T13:15:36.851Z,31.1
2018-09-12T13:15:57.087Z,31
2018-09-12T13:16:17.287Z,31
2018-09-12T13:16:37.801Z,31.1
2018-09-12T13:16:58.450Z,31.1
2018-09-12T13:17:18.729Z,31.1
2018-09-12T13:17:38.965Z,31
2018-09-12T13:17:59.221Z,31.1
2018-09-12T13:18:19.446Z,31
2018-09-12T13:18:39.744Z,31
2018-09-12T13:18:59.999Z,31.1
2018-09-12T13:19:20.177Z,31.1
2018-09-12T13:21:47.441Z,31.1
2018-09-12T13:22:07.705Z,31.1
2018-09-12T13:22:28.093Z,31.2
2018-09-12T13:22:48.415Z,31.1
2018-09-12T13:23:08.627Z,31
2018-09-12T13:23:28.797Z,31.2
2018-09-12T13:23:48.974Z,31.2
2018-09-12T13:24:09.142Z,31.1
2018-09-12T13:24:29.282Z,31.2
2018-09-12T13:24:49.493Z,31.2
2018-09-12T13:25:09.673Z,31.2
2018-09-12T13:25:29.868Z,31.2
2018-09-12T13:25:50.033Z,31.2
2018-09-12T13:26:10.198Z,31.3
2018-09-12T13:26:30.676Z,31.3
2018-09-12T13:26:51.199Z,31.2
2018-09-12T13:27:11.470Z,31.3
2018-09-12T13:27:31.672Z,31.3
2018-09-12T13:27:51.973Z,31.3
2018-09-12T13:28:12.097Z,31.3
2018-09-12T13:28:32.328Z,31.4
2018-09-12T13:28:52.516Z,31.4
2018-09-12T13:29:12.725Z,31.3
2018-09-12T13:29:32.881Z,31.4
2018-09-12T13:29:53.071Z,31.3
2018-09-12T13:30:13.401Z,31.4
2018-09-12T13:30:33.583Z,31.4
2018-09-12T13:30:53.848Z,31.4
2018-09-12T13:31:14.047Z,31.4
2018-09-12T13:31:34.225Z,31.5
2018-09-12T13:31:54.639Z,31.5
2018-09-12T13:32:14.804Z,31.5
2018-09-12T13:32:34.965Z,31.5
2018-09-12T13:32:55.175Z,31.5
2018-09-12T13:33:15.331Z,31.5
2018-09-12T13:33:35.984Z,31.5
2018-09-12T13:33:56.340Z,31.6
2018-09-12T13:34:16.553Z,31.5
2018-09-12T13:34:36.875Z,31.5
2018-09-12T13:34:56.937Z,31.5
2018-09-12T13:35:17.073Z,31.6
2018-09-12T13:35:37.261Z,31.6
2018-09-12T13:35:57.414Z,31.6
2018-09-12T13:36:17.589Z,31.6
2018-09-12T13:36:37.808Z,31.6
2018-09-12T13:36:57.964Z,31.6
2018-09-12T13:37:18.179Z,31.5
2018-09-12T13:37:38.398Z,31.6
2018-09-12T13:37:58.581Z,31.6
2018-09-12T13:38:18.730Z,31.6
2018-09-12T13:38:38.937Z,31.6
2018-09-12T13:38:59.079Z,31.5
2018-09-12T13:39:19.232Z,31.5
2018-09-12T13:39:39.403Z,31.6
2018-09-12T13:40:00.399Z,31.6
2018-09-12T13:40:20.573Z,31.6
2018-09-12T13:40:40.706Z,31.5
2018-09-12T13:41:00.883Z,31.5
2018-09-12T13:41:21.029Z,31.5
2018-09-12T13:41:41.227Z,31.6
2018-09-12T13:42:01.386Z,31.5
2018-09-12T13:42:21.540Z,31.6
2018-09-12T13:42:41.713Z,31.6
2018-09-12T13:43:01.876Z,31.6
2018-09-12T13:43:22.040Z,31.6
2018-09-12T13:43:42.195Z,31.5
2018-09-12T13:44:02.341Z,31.5
2018-09-12T13:44:22.595Z,31.7
2018-09-12T13:44:42.705Z,31.6
2018-09-12T13:45:02.853Z,31.6
2018-09-12T13:45:23.017Z,31.6
2018-09-12T13:45:43.189Z,31.7
2018-09-12T13:46:03.366Z,31.7
2018-09-12T13:46:23.534Z,31.7
2018-09-12T13:46:43.692Z,31.7
2018-09-12T13:47:03.863Z,31.7
2018-09-12T13:47:24.037Z,31.7
2018-09-12T13:47:44.222Z,31.7
2018-09-12T13:48:04.387Z,31.8
2018-09-12T13:48:24.548Z,31.8
2018-09-12T13:48:44.701Z,31.8
2018-09-12T13:49:04.859Z,31.8
2018-09-12T13:49:25.045Z,31.8
2018-09-12T13:49:45.235Z,31.8
2018-09-12T13:50:05.407Z,31.9
2018-09-12T13:50:25.695Z,31.9
2018-09-12T13:50:45.867Z,31.9
2018-09-12T13:51:06.039Z,31.9
2018-09-12T13:51:26.184Z,31.9
2018-09-12T13:51:46.356Z,31.9
2018-09-12T13:52:06.524Z,31.9
2018-09-12T13:52:26.708Z,31.8
2018-09-12T13:52:46.893Z,31.9
2018-09-12T13:53:07.023Z,31.9
2018-09-12T13:53:27.165Z,31.7
2018-09-12T13:53:47.329Z,31.7
2018-09-12T13:54:07.499Z,31.9
2018-09-12T13:54:27.672Z,31.8
2018-09-12T13:54:47.861Z,31.9
2018-09-12T13:55:08.015Z,32
2018-09-12T13:55:28.193Z,31.9
2018-09-12T13:55:48.349Z,32
2018-09-12T13:56:08.579Z,32
2018-09-12T13:56:28.763Z,32
2018-09-12T13:56:49.024Z,31.9
2018-09-12T13:57:09.192Z,31.9
2018-09-12T13:57:29.338Z,31.9
2018-09-12T13:57:49.509Z,32
2018-09-12T13:58:09.704Z,31.9
2018-09-12T13:58:29.891Z,31.9
2018-09-12T13:58:50.090Z,31.9
2018-09-12T13:59:10.271Z,32
2018-09-12T13:59:30.518Z,32
2018-09-12T13:59:50.656Z,32.1
2018-09-12T14:00:10.852Z,32
2018-09-12T14:00:31.071Z,32.1
2018-09-12T14:00:51.468Z,32.1
2018-09-12T14:01:11.635Z,32.1
2018-09-12T14:01:31.792Z,32.2
2018-09-12T14:01:54.150Z,32.1
2018-09-12T14:02:14.329Z,32.1
2018-09-12T14:02:34.532Z,32.1
2018-09-12T14:02:54.700Z,32.1
2018-09-12T14:03:14.949Z,32.1
2018-09-12T14:03:35.058Z,32.1
2018-09-12T14:03:55.189Z,32.2
2018-09-12T14:04:15.371Z,32.1
2018-09-12T14:04:35.552Z,32.2
2018-09-12T14:04:55.691Z,32.2
2018-09-12T14:05:15.865Z,32.1
2018-09-12T14:05:36.078Z,32.2
2018-09-12T14:05:56.268Z,32.2
2018-09-12T14:06:16.474Z,32.2
2018-09-12T14:06:36.649Z,32.2
2018-09-12T14:06:56.852Z,32.3
2018-09-12T14:07:17.012Z,32.2
2018-09-12T14:07:37.199Z,32.2
2018-09-12T14:07:57.349Z,32.3
2018-09-12T14:08:17.541Z,32.3
2018-09-12T14:08:37.734Z,32.3
2018-09-12T14:08:57.991Z,32.3
2018-09-12T14:09:19.079Z,32.2
2018-09-12T14:09:39.284Z,32.3
2018-09-12T14:09:59.493Z,32.2
2018-09-12T14:10:19.929Z,32.2
2018-09-12T14:10:40.154Z,32.2
2018-09-12T14:11:00.371Z,32.2
2018-09-12T14:11:20.515Z,32.2
2018-09-12T14:11:40.740Z,32.2
2018-09-12T14:12:00.914Z,32.2
2018-09-12T14:12:21.060Z,32.2
2018-09-12T14:12:41.224Z,32.2
2018-09-12T14:13:01.452Z,32.3
2018-09-12T14:13:21.583Z,32.2
2018-09-12T14:13:41.788Z,32.3
2018-09-12T14:14:01.964Z,32.3
2018-09-12T14:14:22.154Z,32.3
2018-09-12T14:14:42.318Z,32.3
2018-09-12T14:15:02.493Z,32.3
2018-09-12T14:15:22.663Z,32.3
2018-09-12T14:15:42.853Z,32.3
2018-09-12T14:16:03.022Z,32.3
2018-09-12T14:16:23.177Z,32.4
2018-09-12T14:16:43.324Z,32.4
2018-09-12T14:17:03.554Z,32.3
2018-09-12T14:17:23.730Z,32.4
2018-09-12T14:17:43.883Z,32.5
2018-09-12T14:18:04.039Z,32.5
2018-09-12T14:18:24.199Z,32.4
2018-09-12T14:18:44.298Z,32.6
2018-09-12T14:19:05.627Z,32.6
2018-09-12T14:19:25.832Z,32.6
2018-09-12T14:19:46.006Z,32.6
2018-09-12T14:20:06.202Z,32.6
2018-09-12T14:20:26.384Z,32.6
2018-09-12T14:20:46.554Z,32.5
2018-09-12T14:21:06.707Z,32.6
2018-09-12T14:21:26.886Z,32.5
2018-09-12T14:21:47.024Z,32.5
2018-09-12T14:22:07.207Z,32.5
2018-09-12T14:22:27.387Z,32.5
2018-09-12T14:22:47.677Z,32.5
2018-09-12T14:23:07.818Z,32.5
2018-09-12T14:23:28.017Z,32.4
2018-09-12T14:23:48.163Z,32.4
2018-09-12T14:24:08.332Z,32.3
2018-09-12T14:24:28.490Z,32.3
2018-09-12T14:24:48.688Z,32.3
2018-09-12T14:25:09.046Z,32.3
2018-09-12T14:25:29.206Z,32.3
2018-09-12T14:25:49.390Z,32.3
2018-09-12T14:26:09.541Z,32.4
2018-09-12T14:26:29.726Z,32.3
2018-09-12T14:26:49.919Z,32.3
2018-09-12T14:27:10.099Z,32.3
2018-09-12T14:27:30.287Z,32.3
2018-09-12T14:27:50.438Z,32.3
2018-09-12T14:28:10.598Z,32.4
2018-09-12T14:28:30.781Z,32.3
2018-09-12T14:28:50.951Z,32.3
2018-09-12T14:29:11.102Z,32.3
2018-09-12T14:29:31.250Z,32.4
2018-09-12T14:29:51.396Z,32.3
2018-09-12T14:30:11.544Z,32.3
2018-09-12T14:30:31.707Z,32.3
2018-09-12T14:30:51.866Z,32.4
2018-09-12T14:31:12.036Z,32.5
2018-09-12T14:31:32.207Z,32.5
2018-09-12T14:31:54.679Z,32.4
2018-09-12T14:32:14.982Z,32.5
2018-09-12T14:32:35.369Z,32.6
2018-09-12T14:32:55.518Z,32.5
2018-09-12T14:33:15.728Z,32.6
2018-09-12T14:33:35.897Z,32.6
2018-09-12T14:33:56.041Z,32.5
2018-09-12T14:34:16.222Z,32.6
2018-09-12T14:34:37.156Z,32.6
2018-09-12T14:34:57.315Z,32.6
2018-09-12T14:35:17.529Z,32.6
2018-09-12T14:35:37.855Z,32.6
2018-09-12T14:35:58.249Z,32.6
2018-09-12T14:36:18.649Z,32.4
2018-09-12T14:36:40.068Z,32.5
2018-09-12T14:37:01.319Z,32.4
2018-09-12T14:37:21.916Z,32.6
2018-09-12T14:37:42.359Z,32.4
2018-09-12T14:38:03.365Z,32.5
2018-09-12T14:38:23.765Z,32.4
2018-09-12T14:38:44.764Z,32.5
2018-09-12T14:39:05.419Z,32.5
2018-09-12T14:39:25.845Z,32.4
2018-09-12T14:39:46.610Z,32.5
2018-09-12T14:40:07.229Z,32.5
2018-09-12T14:40:28.539Z,32.4
2018-09-12T14:40:48.975Z,32.4
2018-09-12T14:41:09.480Z,32.4
2018-09-12T14:41:30.114Z,32.4
2018-09-12T14:41:51.003Z,32.5
2018-09-12T14:42:11.669Z,32.5
2018-09-12T14:42:32.002Z,32.5
2018-09-12T14:42:52.297Z,32.6
2018-09-12T14:43:12.722Z,32.5
2018-09-12T14:43:33.167Z,32.7
2018-09-12T14:43:53.656Z,32.6
2018-09-12T14:44:14.375Z,32.6
2018-09-12T14:44:34.853Z,32.6
2018-09-12T14:44:55.389Z,32.5
2018-09-12T14:45:16.142Z,32.4
2018-09-12T14:45:36.903Z,32.6
2018-09-12T14:45:57.904Z,32.6
2018-09-12T14:46:19.540Z,32.6
2018-09-12T14:46:46.541Z,32.6
2018-09-12T14:47:38.031Z,32.7
2018-09-12T14:48:50.646Z,33
2018-09-12T14:49:41.859Z,33.2
2018-09-12T14:50:17.317Z,33.2
2018-09-12T14:50:41.862Z,33.2
2018-09-12T14:51:07.493Z,33.2
2018-09-12T14:51:40.847Z,33.2
2018-09-12T14:53:25.696Z,33.7
2018-09-12T14:54:51.745Z,34
2018-09-12T14:56:11.728Z,34.5
2018-09-12T14:57:10.994Z,34.8
2018-09-12T14:58:14.966Z,35.1
2018-09-12T14:59:12.588Z,35.3
2018-09-12T15:00:09.210Z,35.5
2018-09-12T15:01:00.678Z,35.6
2018-09-12T15:01:48.994Z,35.8
2018-09-12T15:02:25.330Z,35.9
2018-09-12T15:03:19.423Z,36
2018-09-12T15:03:59.378Z,36.1
2018-09-12T15:04:35.438Z,36.1
2018-09-12T15:05:08.803Z,36.1
2018-09-12T15:05:46.618Z,36.2
2018-09-12T15:06:22.658Z,36.3
2018-09-12T15:07:11.352Z,36.4
2018-09-12T15:08:07.877Z,36.5
2018-09-12T15:08:50.112Z,36.5
2018-09-12T15:09:46.141Z,36.7
2018-09-12T15:10:26.297Z,36.7
2018-09-12T15:11:11.305Z,37
2018-09-12T15:11:56.522Z,37.1
2018-09-12T15:12:37.815Z,37.3
2018-09-12T15:13:27.600Z,37.2
2018-09-12T15:14:08.613Z,37
2018-09-12T15:14:52.368Z,36.9
2018-09-12T15:16:19.764Z,37
2018-09-12T15:17:42.261Z,37.4
2018-09-12T15:18:09.972Z,37.4
2018-09-12T15:18:38.699Z,37.4
2018-09-12T15:19:13.260Z,37.3
2018-09-12T15:19:52.547Z,37.2
2018-09-12T15:20:24.023Z,37.2
2018-09-12T15:20:50.037Z,37.2
2018-09-12T15:21:22.194Z,37.2
2018-09-12T15:21:57.636Z,37
2018-09-12T15:22:30.070Z,37
2018-09-12T15:23:02.250Z,36.9
2018-09-12T15:23:35.223Z,37
2018-09-12T15:24:34.225Z,36.8
2018-09-12T15:25:08.902Z,36.8
2018-09-12T15:25:44.858Z,36.7
2018-09-12T15:26:13.516Z,36.8
2018-09-12T15:26:49.582Z,36.6
2018-09-12T15:27:47.039Z,36.5
2018-09-12T15:28:16.434Z,36.5
2018-09-12T15:29:13.817Z,36.5
2018-09-12T15:29:43.648Z,36.4
2018-09-12T15:30:23.029Z,36.4
2018-09-12T15:31:02.630Z,36.5
2018-09-12T15:31:52.663Z,36.4
2018-09-12T15:32:37.903Z,36.3
2018-09-12T15:33:20.006Z,36.2
2018-09-12T15:34:12.844Z,36
2018-09-12T15:34:52.077Z,35.8
2018-09-12T15:35:44.194Z,35.5
2018-09-12T15:36:14.850Z,35.2
2018-09-12T15:36:49.864Z,34.9
2018-09-12T15:37:20.768Z,34.5
2018-09-12T15:38:07.679Z,34.2
2018-09-12T15:38:51.624Z,34
2018-09-12T15:39:46.724Z,33.7
2018-09-12T15:40:26.992Z,33.5
2018-09-12T15:41:38.185Z,33.2
2018-09-12T15:41:58.556Z,33.1
2018-09-12T15:42:18.855Z,33.1
2018-09-12T15:42:39.053Z,33.1
2018-09-12T15:42:59.434Z,33
2018-09-12T15:43:19.746Z,32.9
2018-09-12T15:43:40.142Z,32.7
2018-09-12T15:44:00.366Z,32.6
2018-09-12T15:44:20.557Z,32.6
2018-09-12T15:44:40.772Z,32.4
2018-09-12T15:45:00.934Z,32.3
2018-09-12T15:45:21.269Z,32.3
2018-09-12T15:45:41.621Z,32.2
2018-09-12T15:46:01.781Z,32.1
2018-09-12T15:46:21.978Z,32.1
2018-09-12T15:46:42.157Z,32
2018-09-12T15:47:02.390Z,31.9
2018-09-12T15:47:22.585Z,31.8
2018-09-12T15:47:42.644Z,31.9
2018-09-12T15:48:02.797Z,31.7
2018-09-12T15:48:22.967Z,31.7
2018-09-12T15:48:43.146Z,31.6
2018-09-12T15:49:03.314Z,31.6
2018-09-12T15:49:23.508Z,31.5
2018-09-12T15:49:43.677Z,31.5
2018-09-12T15:50:03.849Z,31.4
2018-09-12T15:50:23.979Z,31.5
2018-09-12T15:50:44.139Z,31.4
2018-09-12T15:51:04.295Z,31.4
2018-09-12T15:51:24.468Z,31.4
2018-09-12T15:51:44.616Z,31.4
2018-09-12T15:52:04.790Z,31.4
2018-09-12T15:52:24.965Z,31.3
2018-09-12T15:52:45.118Z,31.3
2018-09-12T15:53:05.292Z,31.3
2018-09-12T15:53:25.436Z,31.3
2018-09-12T15:53:45.609Z,31.2
2018-09-12T15:54:05.779Z,31.1
2018-09-12T15:54:25.946Z,31.1
2018-09-12T15:54:46.106Z,31
2018-09-12T15:55:06.285Z,30.9
2018-09-12T15:55:26.411Z,30.9
2018-09-12T15:55:46.576Z,30.8
2018-09-12T15:56:06.734Z,30.8
2018-09-12T15:56:26.931Z,30.7
2018-09-12T15:56:47.082Z,30.6
2018-09-12T15:57:07.213Z,30.5
2018-09-12T15:57:27.356Z,30.5
2018-09-12T15:57:47.582Z,30.5
2018-09-12T15:58:07.901Z,30.4
2018-09-12T15:58:28.276Z,30.4
2018-09-12T15:58:48.461Z,30.3
2018-09-12T15:59:08.632Z,30.4
2018-09-12T15:59:28.790Z,30.2
2018-09-12T15:59:48.945Z,30.2
2018-09-12T16:00:09.148Z,30.2
2018-09-12T16:00:29.296Z,30.3
2018-09-12T16:00:49.478Z,30.2
2018-09-12T16:01:09.635Z,30.2
2018-09-12T16:01:29.790Z,30.1
2018-09-12T16:01:49.950Z,30.1
2018-09-12T16:02:10.100Z,30.1
2018-09-12T16:02:30.232Z,30.1
2018-09-12T16:02:50.530Z,30.1
2018-09-12T16:03:10.586Z,30.1
2018-09-12T16:03:30.750Z,30
2018-09-12T16:03:50.961Z,29.9
2018-09-12T16:04:11.055Z,30
2018-09-12T16:04:31.195Z,29.9
2018-09-12T16:04:51.394Z,29.9
2018-09-12T16:05:11.550Z,29.9
2018-09-12T16:05:31.724Z,29.9
2018-09-12T16:05:51.908Z,29.8
2018-09-12T16:06:12.078Z,29.7
2018-09-12T16:06:32.234Z,29.6
2018-09-12T16:06:52.404Z,29.6
2018-09-12T16:07:12.547Z,29.5
2018-09-12T16:07:32.723Z,29.6
2018-09-12T16:07:52.890Z,29.5
2018-09-12T16:08:13.033Z,29.4
2018-09-12T16:08:33.163Z,29.4
2018-09-12T16:08:53.309Z,29.3
2018-09-12T16:09:15.031Z,29.3
2018-09-12T16:09:35.173Z,29.3
2018-09-12T16:09:55.316Z,29.3
2018-09-12T16:10:15.487Z,29.2
2018-09-12T16:10:36.172Z,29.2
2018-09-12T16:10:56.358Z,29.3
2018-09-12T16:11:16.490Z,29.3
2018-09-12T16:11:36.640Z,29.3
2018-09-12T16:11:56.800Z,29.2
2018-09-12T16:12:16.939Z,29.1
2018-09-12T16:12:37.092Z,29.1
2018-09-12T16:12:57.281Z,29
2018-09-12T16:13:17.438Z,29
2018-09-12T16:13:38.175Z,28.9
2018-09-12T16:13:58.327Z,28.9
2018-09-12T16:14:18.492Z,28.9
2018-09-12T16:14:38.653Z,28.9
2018-09-12T16:14:58.790Z,28.9
2018-09-12T16:15:19.015Z,28.8
2018-09-12T16:15:39.383Z,28.9
2018-09-12T16:15:59.504Z,28.8
2018-09-12T16:16:19.672Z,28.7
2018-09-12T16:16:39.840Z,28.8
2018-09-12T16:17:00.123Z,28.7
2018-09-12T16:17:20.178Z,28.6
2018-09-12T16:17:40.330Z,28.6
2018-09-12T16:18:00.495Z,28.6
2018-09-12T16:18:21.268Z,28.4
2018-09-12T16:18:41.411Z,28.5
2018-09-12T16:19:01.585Z,28.5
2018-09-12T16:19:21.739Z,28.5
2018-09-12T16:19:41.886Z,28.4
2018-09-12T16:20:02.047Z,28.4
2018-09-12T16:20:22.204Z,28.3
2018-09-12T16:20:42.359Z,28.3
2018-09-12T16:21:02.525Z,28.3
2018-09-12T16:21:22.704Z,28.3
2018-09-12T16:21:42.861Z,28.4
2018-09-12T16:22:03.011Z,28.3
2018-09-12T16:22:23.184Z,28.3
2018-09-12T16:22:43.335Z,28.3
2018-09-12T16:23:03.471Z,28.3
2018-09-12T16:23:24.325Z,28.3
2018-09-12T16:23:44.462Z,28.3
2018-09-12T16:24:04.616Z,28.3
2018-09-12T16:24:26.172Z,28.3
2018-09-12T16:24:46.317Z,28.3
2018-09-12T16:25:06.485Z,28.2
2018-09-12T16:25:26.656Z,28.2
2018-09-12T16:25:46.803Z,28.1
2018-09-12T16:26:06.942Z,28.1
2018-09-12T16:26:27.102Z,28.2
2018-09-12T16:26:47.264Z,28.2
2018-09-12T16:27:07.423Z,28.1
2018-09-12T16:27:27.589Z,28.1
2018-09-12T16:27:47.757Z,28.1
2018-09-12T16:28:07.909Z,28
2018-09-12T16:28:28.064Z,28
2018-09-12T16:28:48.231Z,28
2018-09-12T16:29:08.389Z,28
2018-09-12T16:29:28.544Z,28.1
2018-09-12T16:29:48.703Z,28
2018-09-12T16:30:08.862Z,27.9
2018-09-12T16:30:29.036Z,28
2018-09-12T16:30:49.193Z,28
2018-09-12T16:31:09.347Z,27.9
2018-09-12T16:31:29.528Z,27.9
2018-09-12T16:31:49.679Z,28
2018-09-12T16:32:09.834Z,27.9
2018-09-12T16:32:30.054Z,27.9
2018-09-12T16:32:50.320Z,27.8
2018-09-12T16:33:10.432Z,27.9
2018-09-12T16:33:30.616Z,27.8
2018-09-12T16:33:50.778Z,27.8
2018-09-12T16:34:10.934Z,27.9
2018-09-12T16:34:31.097Z,27.7
2018-09-12T16:34:51.281Z,27.8
2018-09-12T16:35:11.434Z,27.7
2018-09-12T16:35:31.543Z,27.7
2018-09-12T16:35:51.705Z,27.7
2018-09-12T16:36:14.330Z,27.7
2018-09-12T16:36:34.585Z,27.7
2018-09-12T16:36:54.756Z,27.7
2018-09-12T16:37:14.917Z,27.6
2018-09-12T16:37:35.067Z,27.6
2018-09-12T16:37:55.223Z,27.6
2018-09-12T16:38:15.375Z,27.6
2018-09-12T16:38:35.529Z,27.6
2018-09-12T16:38:55.688Z,27.5
2018-09-12T16:39:15.861Z,27.5
2018-09-12T16:39:36.019Z,27.5
2018-09-12T16:39:56.176Z,27.5
2018-09-12T16:40:16.405Z,27.5
2018-09-12T16:40:36.498Z,27.4
2018-09-12T16:40:56.652Z,27.6
2018-09-12T16:41:16.815Z,27.5
2018-09-12T16:41:37.002Z,27.4
2018-09-12T16:41:57.168Z,27.4
2018-09-12T16:42:17.354Z,27.4
2018-09-12T16:42:37.521Z,27.4
2018-09-12T16:42:57.704Z,27.5
2018-09-12T16:43:17.835Z,27.4
2018-09-12T16:43:37.976Z,27.3
2018-09-12T16:43:58.172Z,27.4
2018-09-12T16:44:18.332Z,27.3
2018-09-12T16:44:38.498Z,27.3
2018-09-12T16:44:58.658Z,27.3
2018-09-12T16:45:18.850Z,27.2
2018-09-12T16:45:39.014Z,27.2
2018-09-12T16:45:59.144Z,27.2
2018-09-12T16:46:19.308Z,27.2
2018-09-12T16:46:39.485Z,27.3
2018-09-12T16:46:59.635Z,27.2
2018-09-12T16:47:19.818Z,27.2
2018-09-12T16:47:40.733Z,27.2
2018-09-12T16:48:00.894Z,27.1
2018-09-12T16:48:21.063Z,27.1
2018-09-12T16:48:41.247Z,27.1
2018-09-12T16:49:01.393Z,27.1
2018-09-12T16:49:21.561Z,27.1
2018-09-12T16:49:41.724Z,27
2018-09-12T16:50:01.888Z,27.1
2018-09-12T16:50:22.017Z,27.1
2018-09-12T16:50:42.190Z,27
2018-09-12T16:51:02.366Z,27.1
2018-09-12T16:51:22.573Z,27
2018-09-12T16:51:42.806Z,27
2018-09-12T16:52:02.899Z,26.9
2018-09-12T16:52:23.073Z,27
2018-09-12T16:52:43.238Z,26.9
2018-09-12T16:53:03.377Z,26.9
2018-09-12T16:53:23.527Z,27
2018-09-12T16:53:43.668Z,27
2018-09-12T16:54:03.837Z,27
2018-09-12T16:54:23.988Z,26.9
2018-09-12T16:54:44.142Z,27
2018-09-12T16:55:04.273Z,26.9
2018-09-12T16:55:24.425Z,26.9
2018-09-12T16:55:44.598Z,26.9
2018-09-12T16:56:04.833Z,26.9
2018-09-12T16:56:25.053Z,26.8
2018-09-12T16:56:45.328Z,26.9
2018-09-12T16:57:05.351Z,26.9
2018-09-12T16:57:25.503Z,26.8
2018-09-12T16:57:45.663Z,26.8
2018-09-12T16:58:05.832Z,26.9
2018-09-12T16:58:25.979Z,26.9
2018-09-12T16:58:46.141Z,26.8
2018-09-12T16:59:06.302Z,26.8
2018-09-12T16:59:26.453Z,26.8
2018-09-12T16:59:46.612Z,26.8
2018-09-12T17:00:06.783Z,26.8
2018-09-12T17:00:26.911Z,26.7
2018-09-12T17:00:47.081Z,26.7
2018-09-12T17:01:07.227Z,26.7
2018-09-12T17:01:27.383Z,26.7
2018-09-12T17:01:47.556Z,26.7
2018-09-12T17:02:07.724Z,26.7
2018-09-12T17:02:27.883Z,26.6
2018-09-12T17:02:48.144Z,26.7
2018-09-12T17:03:08.329Z,26.6
2018-09-12T17:03:28.483Z,26.6
2018-09-12T17:03:48.648Z,26.6
2018-09-12T17:04:08.792Z,26.6
2018-09-12T17:04:28.964Z,26.5
2018-09-12T17:04:49.133Z,26.5
2018-09-12T17:05:09.307Z,26.5
2018-09-12T17:05:29.471Z,26.5
2018-09-12T17:05:49.625Z,26.5
2018-09-12T17:06:09.784Z,26.5
2018-09-12T17:06:29.949Z,26.5
2018-09-12T17:06:50.775Z,26.5
2018-09-12T17:07:10.961Z,26.4
2018-09-12T17:07:31.132Z,26.4
2018-09-12T17:07:51.289Z,26.4
2018-09-12T17:08:11.441Z,26.4
2018-09-12T17:08:31.575Z,26.4
2018-09-12T17:08:51.748Z,26.4
2018-09-12T17:09:11.910Z,26.3
2018-09-12T17:09:32.068Z,26.4
2018-09-12T17:09:52.297Z,26.4
2018-09-12T17:10:12.444Z,26.3
2018-09-12T17:10:32.613Z,26.3
2018-09-12T17:10:52.756Z,26.3
2018-09-12T17:11:12.903Z,26.3
2018-09-12T17:11:33.057Z,26.3
2018-09-12T17:11:53.210Z,26.3
2018-09-12T17:12:13.376Z,26.3
2018-09-12T17:12:33.523Z,26.3
2018-09-12T17:12:53.669Z,26.3
2018-09-12T17:13:13.819Z,26.3
2018-09-12T17:13:33.970Z,26.2
2018-09-12T17:13:54.120Z,26.2
2018-09-12T17:14:14.354Z,26.2
2018-09-12T17:14:34.460Z,26.2
2018-09-12T17:14:54.632Z,26.2
2018-09-12T17:15:14.813Z,26.2
2018-09-12T17:15:34.971Z,26.2
2018-09-12T17:15:55.124Z,26.2
2018-09-12T17:16:15.291Z,26.2
2018-09-12T17:16:35.453Z,26.2
2018-09-12T17:16:55.610Z,26.1
2018-09-12T17:17:15.755Z,26.2
2018-09-12T17:17:35.947Z,26.2
2018-09-12T17:17:56.109Z,26.1
2018-09-12T17:18:16.260Z,26.1
2018-09-12T17:18:36.433Z,26.1
2018-09-12T17:18:56.595Z,26
2018-09-12T17:19:16.740Z,26.1
2018-09-12T17:19:36.900Z,26.1
2018-09-12T17:19:57.051Z,26
2018-09-12T17:20:17.845Z,26.1
2018-09-12T17:20:37.913Z,26
2018-09-12T17:20:58.071Z,26
2018-09-12T17:21:18.214Z,26
2018-09-12T17:21:38.401Z,25.9
2018-09-12T17:21:58.601Z,26
2018-09-12T17:22:19.295Z,25.9
2018-09-12T17:22:39.460Z,25.9
2018-09-12T17:23:00.323Z,26
2018-09-12T17:23:21.949Z,25.9
2018-09-12T17:23:42.122Z,25.9
2018-09-12T17:24:03.426Z,25.9
2018-09-12T17:24:23.584Z,25.9
2018-09-12T17:24:45.646Z,25.8
2018-09-12T17:25:05.808Z,25.9
2018-09-12T17:25:25.952Z,25.9
2018-09-12T17:25:46.114Z,25.9
2018-09-12T17:26:06.283Z,25.9
2018-09-12T17:26:26.940Z,25.9
2018-09-12T17:26:47.111Z,25.8
2018-09-12T17:27:07.265Z,25.8
2018-09-12T17:27:27.420Z,25.8
2018-09-12T17:27:47.568Z,25.7
2018-09-12T17:28:07.732Z,25.7
2018-09-12T17:28:27.858Z,25.7
2018-09-12T17:28:48.015Z,25.8
2018-09-12T17:29:08.151Z,25.8
2018-09-12T17:29:28.316Z,25.7
2018-09-12T17:29:48.476Z,25.6
2018-09-12T17:30:08.623Z,25.7
2018-09-12T17:30:28.777Z,25.7
2018-09-12T17:30:48.932Z,25.7
2018-09-12T17:31:09.097Z,25.7
2018-09-12T17:31:29.255Z,25.7
2018-09-12T17:31:49.409Z,25.7
2018-09-12T17:32:09.596Z,25.7
2018-09-12T17:32:29.939Z,25.6
2018-09-12T17:32:49.994Z,25.7
2018-09-12T17:33:10.166Z,25.6
2018-09-12T17:33:30.354Z,25.6
2018-09-12T17:33:51.161Z,25.6
2018-09-12T17:34:11.318Z,25.6
2018-09-12T17:34:31.745Z,25.6
2018-09-12T17:34:51.903Z,25.6
2018-09-12T17:35:12.074Z,25.5
2018-09-12T17:35:32.236Z,25.6
2018-09-12T17:35:52.397Z,25.5
2018-09-12T17:36:12.572Z,25.6
2018-09-12T17:36:32.735Z,25.6
2018-09-12T17:36:52.904Z,25.5
2018-09-12T17:37:13.057Z,25.6
2018-09-12T17:37:33.218Z,25.5
2018-09-12T17:37:53.539Z,25.4
2018-09-12T17:38:13.727Z,25.4
2018-09-12T17:38:33.901Z,25.5
2018-09-12T17:38:54.063Z,25.5
2018-09-12T17:39:14.224Z,25.5
2018-09-12T17:39:34.394Z,25.4
2018-09-12T17:39:54.575Z,25.4
2018-09-12T17:40:14.726Z,25.5
2018-09-12T17:40:34.887Z,25.5
2018-09-12T17:40:55.059Z,25.4
2018-09-12T17:41:15.235Z,25.4
2018-09-12T17:41:35.381Z,25.4
2018-09-12T17:41:55.532Z,25.4
2018-09-12T17:42:15.738Z,25.4
2018-09-12T17:42:35.894Z,25.4
2018-09-12T17:42:56.050Z,25.5
2018-09-12T17:43:16.174Z,25.4
2018-09-12T17:43:36.343Z,25.4
2018-09-12T17:43:56.513Z,25.4
2018-09-12T17:44:16.664Z,25.3
2018-09-12T17:44:36.811Z,25.4
2018-09-12T17:44:56.953Z,25.5
2018-09-12T17:45:17.089Z,25.4
2018-09-12T17:45:37.255Z,25.4
2018-09-12T17:45:57.427Z,25.3
2018-09-12T17:46:17.563Z,25.4
2018-09-12T17:46:37.724Z,25.4
2018-09-12T17:46:57.880Z,25.3
2018-09-12T17:47:18.143Z,25.3
2018-09-12T17:47:38.303Z,25.4
2018-09-12T17:47:58.470Z,25.3
2018-09-12T17:48:18.645Z,25.4
2018-09-12T17:48:38.817Z,25.3
2018-09-12T17:48:58.973Z,25.4
2018-09-12T17:49:19.134Z,25.4
2018-09-12T17:49:39.292Z,25.3
2018-09-12T17:49:59.414Z,25.3
2018-09-12T17:50:19.587Z,25.2
2018-09-12T17:50:39.735Z,25.2
2018-09-12T17:50:59.888Z,25.3
2018-09-12T17:51:20.036Z,25.3
2018-09-12T17:51:40.189Z,25.3
2018-09-12T17:52:00.339Z,25.2
2018-09-12T17:52:20.490Z,25.3
2018-09-12T17:52:40.641Z,25.2
2018-09-12T17:53:00.775Z,25.2
2018-09-12T17:53:20.917Z,25.2
2018-09-12T17:53:41.062Z,25.3
2018-09-12T17:54:01.207Z,25.2
2018-09-12T17:54:21.357Z,25.2
2018-09-12T17:54:41.510Z,25.2
2018-09-12T17:55:01.662Z,25.2
2018-09-12T17:55:21.844Z,25.1
2018-09-12T17:55:42.118Z,25.2
2018-09-12T17:56:02.254Z,25.1
2018-09-12T17:56:22.399Z,25.2
2018-09-12T17:56:42.558Z,25.1
2018-09-12T17:57:02.693Z,25.2
2018-09-12T17:57:22.866Z,25.2
2018-09-12T17:57:43.011Z,25.1
2018-09-12T17:58:03.155Z,25.1
2018-09-12T17:58:23.317Z,25.1
2018-09-12T17:58:43.487Z,25.1
2018-09-12T17:59:03.714Z,25.1
2018-09-12T17:59:24.684Z,25
2018-09-12T17:59:44.903Z,25.1
2018-09-12T18:00:05.108Z,25.1
2018-09-12T18:00:25.618Z,25
2018-09-12T18:00:45.903Z,25.1
2018-09-12T18:01:06.184Z,25.1
2018-09-12T18:01:26.744Z,25.1
2018-09-12T18:01:46.943Z,25
2018-09-12T18:02:07.107Z,25.1
2018-09-12T18:02:27.360Z,25.1
2018-09-12T18:02:47.537Z,25
2018-09-12T18:03:08.676Z,24.9
2018-09-12T18:03:28.865Z,24.9
2018-09-12T18:03:49.160Z,24.9
2018-09-12T18:04:09.332Z,24.8
2018-09-12T18:04:29.497Z,24.9
2018-09-12T18:04:49.672Z,24.9
2018-09-12T18:05:09.864Z,24.9
2018-09-12T18:05:30.196Z,24.9